sensor_id;sensor_type;location;lat;lon;timestamp;temperature;humidity
21108;DHT22;10712;52.944;9.098;2022-12-16T00:00:44;-4.90;88.20
21108;DHT22;10712;52.944;9.098;2022-12-16T00:03:09;-5.00;88.20
21108;DHT22;10712;52.944;9.098;2022-12-16T00:05:35;-5.00;88.10
21108;DHT22;10712;52.944;9.098;2022-12-16T00:08:02;-5.00;88.40
21108;DHT22;10712;52.944;9.098;2022-12-16T00:10:29;-5.00;88.70
21108;DHT22;10712;52.944;9.098;2022-12-16T00:13:14;-4.90;89.10
21108;DHT22;10712;52.944;9.098;2022-12-16T00:15:40;-4.90;89.30
21108;DHT22;10712;52.944;9.098;2022-12-16T00:18:06;-4.90;89.50
21108;DHT22;10712;52.944;9.098;2022-12-16T00:20:31;-4.80;89.60
21108;DHT22;10712;52.944;9.098;2022-12-16T00:22:57;-4.80;89.80
21108;DHT22;10712;52.944;9.098;2022-12-16T00:25:23;-4.70;89.90
21108;DHT22;10712;52.944;9.098;2022-12-16T00:27:48;-4.60;90.00
21108;DHT22;10712;52.944;9.098;2022-12-16T00:30:14;-4.60;90.00
21108;DHT22;10712;52.944;9.098;2022-12-16T00:32:40;-4.60;90.00
21108;DHT22;10712;52.944;9.098;2022-12-16T00:35:05;-4.60;90.00
21108;DHT22;10712;52.944;9.098;2022-12-16T00:37:31;-4.60;90.10
21108;DHT22;10712;52.944;9.098;2022-12-16T00:39:57;-4.50;90.20
21108;DHT22;10712;52.944;9.098;2022-12-16T00:42:22;-4.50;90.30
21108;DHT22;10712;52.944;9.098;2022-12-16T00:44:48;-4.40;90.40
21108;DHT22;10712;52.944;9.098;2022-12-16T00:47:14;-4.40;90.50
21108;DHT22;10712;52.944;9.098;2022-12-16T00:49:40;-4.40;90.60
21108;DHT22;10712;52.944;9.098;2022-12-16T00:52:05;-4.30;90.60
21108;DHT22;10712;52.944;9.098;2022-12-16T00:54:31;-4.30;90.70
21108;DHT22;10712;52.944;9.098;2022-12-16T00:56:56;-4.30;90.70
21108;DHT22;10712;52.944;9.098;2022-12-16T00:59:22;-4.20;90.70
21108;DHT22;10712;52.944;9.098;2022-12-16T01:01:48;-4.20;90.70
21108;DHT22;10712;52.944;9.098;2022-12-16T01:04:14;-4.10;90.70
21108;DHT22;10712;52.944;9.098;2022-12-16T01:06:39;-4.10;90.70
21108;DHT22;10712;52.944;9.098;2022-12-16T01:09:05;-4.00;90.70
21108;DHT22;10712;52.944;9.098;2022-12-16T01:11:31;-4.00;90.70
21108;DHT22;10712;52.944;9.098;2022-12-16T01:13:56;-4.00;90.70
21108;DHT22;10712;52.944;9.098;2022-12-16T01:16:22;-4.00;90.80
21108;DHT22;10712;52.944;9.098;2022-12-16T01:18:48;-3.90;90.80
21108;DHT22;10712;52.944;9.098;2022-12-16T01:21:14;-3.90;90.80
21108;DHT22;10712;52.944;9.098;2022-12-16T01:23:40;-3.90;90.80
21108;DHT22;10712;52.944;9.098;2022-12-16T01:26:05;-3.80;90.80
21108;DHT22;10712;52.944;9.098;2022-12-16T01:28:31;-3.80;90.80
21108;DHT22;10712;52.944;9.098;2022-12-16T01:30:57;-3.80;90.70
21108;DHT22;10712;52.944;9.098;2022-12-16T01:33:29;-3.80;90.60
21108;DHT22;10712;52.944;9.098;2022-12-16T01:35:57;-3.80;90.60
21108;DHT22;10712;52.944;9.098;2022-12-16T01:38:24;-3.80;90.60
21108;DHT22;10712;52.944;9.098;2022-12-16T01:40:50;-3.80;90.60
21108;DHT22;10712;52.944;9.098;2022-12-16T01:43:21;-3.80;90.70
21108;DHT22;10712;52.944;9.098;2022-12-16T01:45:49;-3.80;90.70
21108;DHT22;10712;52.944;9.098;2022-12-16T01:48:34;-3.80;90.60
21108;DHT22;10712;52.944;9.098;2022-12-16T01:51:05;-3.80;90.40
21108;DHT22;10712;52.944;9.098;2022-12-16T01:53:35;-3.90;90.20
21108;DHT22;10712;52.944;9.098;2022-12-16T01:56:04;-3.90;89.80
21108;DHT22;10712;52.944;9.098;2022-12-16T01:58:31;-3.90;89.60
21108;DHT22;10712;52.944;9.098;2022-12-16T02:00:59;-4.00;89.80
21108;DHT22;10712;52.944;9.098;2022-12-16T02:03:28;-4.00;89.80
21108;DHT22;10712;52.944;9.098;2022-12-16T02:05:57;-4.00;89.80
21108;DHT22;10712;52.944;9.098;2022-12-16T02:08:25;-4.10;89.60
21108;DHT22;10712;52.944;9.098;2022-12-16T02:11:01;-4.10;89.40
21108;DHT22;10712;52.944;9.098;2022-12-16T02:16:44;-4.20;89.10
21108;DHT22;10712;52.944;9.098;2022-12-16T02:22:32;-4.30;88.60
21108;DHT22;10712;52.944;9.098;2022-12-16T02:25:20;-4.40;88.10
21108;DHT22;10712;52.944;9.098;2022-12-16T02:31:33;-4.60;87.40
21108;DHT22;10712;52.944;9.098;2022-12-16T02:36:49;-4.80;87.50
21108;DHT22;10712;52.944;9.098;2022-12-16T02:42:20;-4.80;87.80
21108;DHT22;10712;52.944;9.098;2022-12-16T02:44:56;-4.80;88.00
21108;DHT22;10712;52.944;9.098;2022-12-16T02:47:26;-4.80;88.10
21108;DHT22;10712;52.944;9.098;2022-12-16T02:49:53;-4.80;87.90
21108;DHT22;10712;52.944;9.098;2022-12-16T02:52:20;-4.80;87.70
21108;DHT22;10712;52.944;9.098;2022-12-16T02:54:49;-4.80;87.60
21108;DHT22;10712;52.944;9.098;2022-12-16T02:59:52;-4.90;87.20
21108;DHT22;10712;52.944;9.098;2022-12-16T03:05:05;-4.90;87.30
21108;DHT22;10712;52.944;9.098;2022-12-16T03:07:37;-4.90;87.40
21108;DHT22;10712;52.944;9.098;2022-12-16T03:10:05;-4.90;87.40
21108;DHT22;10712;52.944;9.098;2022-12-16T03:12:35;-4.90;87.40
21108;DHT22;10712;52.944;9.098;2022-12-16T03:15:05;-4.80;87.40
21108;DHT22;10712;52.944;9.098;2022-12-16T03:17:32;-4.90;87.20
21108;DHT22;10712;52.944;9.098;2022-12-16T03:20:03;-4.90;86.90
21108;DHT22;10712;52.944;9.098;2022-12-16T03:22:35;-5.00;86.10
21108;DHT22;10712;52.944;9.098;2022-12-16T03:25:05;-5.10;85.90
21108;DHT22;10712;52.944;9.098;2022-12-16T03:27:38;-5.20;86.40
21108;DHT22;10712;52.944;9.098;2022-12-16T03:30:18;-5.20;86.90
21108;DHT22;10712;52.944;9.098;2022-12-16T03:32:57;-5.30;87.10
21108;DHT22;10712;52.944;9.098;2022-12-16T03:35:41;-5.30;87.60
21108;DHT22;10712;52.944;9.098;2022-12-16T03:38:12;-5.30;87.60
21108;DHT22;10712;52.944;9.098;2022-12-16T03:40:40;-5.30;87.50
21108;DHT22;10712;52.944;9.098;2022-12-16T03:43:06;-5.30;87.60
21108;DHT22;10712;52.944;9.098;2022-12-16T03:45:38;-5.40;87.30
21108;DHT22;10712;52.944;9.098;2022-12-16T03:48:07;-5.40;87.10
21108;DHT22;10712;52.944;9.098;2022-12-16T03:50:35;-5.40;87.10
21108;DHT22;10712;52.944;9.098;2022-12-16T03:53:02;-5.50;87.20
21108;DHT22;10712;52.944;9.098;2022-12-16T03:55:29;-5.50;87.30
21108;DHT22;10712;52.944;9.098;2022-12-16T03:57:55;-5.50;87.10
21108;DHT22;10712;52.944;9.098;2022-12-16T04:00:21;-5.60;86.30
21108;DHT22;10712;52.944;9.098;2022-12-16T04:02:48;-5.60;86.50
21108;DHT22;10712;52.944;9.098;2022-12-16T04:05:13;-5.60;86.80
21108;DHT22;10712;52.944;9.098;2022-12-16T04:07:40;-5.60;87.00
21108;DHT22;10712;52.944;9.098;2022-12-16T04:10:05;-5.70;86.70
21108;DHT22;10712;52.944;9.098;2022-12-16T04:12:32;-5.70;86.10
21108;DHT22;10712;52.944;9.098;2022-12-16T04:15:16;-5.80;86.10
21108;DHT22;10712;52.944;9.098;2022-12-16T04:18:00;-5.80;86.50
21108;DHT22;10712;52.944;9.098;2022-12-16T04:20:45;-5.80;86.60
21108;DHT22;10712;52.944;9.098;2022-12-16T04:23:32;-5.80;86.60
21108;DHT22;10712;52.944;9.098;2022-12-16T04:26:19;-5.80;86.30
21108;DHT22;10712;52.944;9.098;2022-12-16T04:28:46;-5.80;86.00
21108;DHT22;10712;52.944;9.098;2022-12-16T04:31:12;-5.90;85.80
21108;DHT22;10712;52.944;9.098;2022-12-16T04:33:37;-5.90;85.40
21108;DHT22;10712;52.944;9.098;2022-12-16T04:36:23;-6.00;84.80
21108;DHT22;10712;52.944;9.098;2022-12-16T04:39:07;-6.20;84.10
21108;DHT22;10712;52.944;9.098;2022-12-16T04:41:54;-6.30;84.30
21108;DHT22;10712;52.944;9.098;2022-12-16T04:44:38;-6.40;85.10
21108;DHT22;10712;52.944;9.098;2022-12-16T04:47:22;-6.40;85.40
21108;DHT22;10712;52.944;9.098;2022-12-16T04:50:07;-6.40;85.50
21108;DHT22;10712;52.944;9.098;2022-12-16T04:52:51;-6.40;85.90
21108;DHT22;10712;52.944;9.098;2022-12-16T04:55:36;-6.30;86.00
21108;DHT22;10712;52.944;9.098;2022-12-16T04:58:28;-6.30;85.90
21108;DHT22;10712;52.944;9.098;2022-12-16T05:01:12;-6.40;84.50
21108;DHT22;10712;52.944;9.098;2022-12-16T05:03:56;-6.50;83.80
21108;DHT22;10712;52.944;9.098;2022-12-16T05:06:40;-6.70;83.70
21108;DHT22;10712;52.944;9.098;2022-12-16T05:09:25;-6.80;84.30
21108;DHT22;10712;52.944;9.098;2022-12-16T05:12:09;-6.80;84.90
21108;DHT22;10712;52.944;9.098;2022-12-16T05:14:53;-6.70;85.40
21108;DHT22;10712;52.944;9.098;2022-12-16T05:17:37;-6.60;85.70
21108;DHT22;10712;52.944;9.098;2022-12-16T05:20:21;-6.60;85.80
21108;DHT22;10712;52.944;9.098;2022-12-16T05:23:05;-6.60;84.80
21108;DHT22;10712;52.944;9.098;2022-12-16T05:25:50;-6.70;84.70
21108;DHT22;10712;52.944;9.098;2022-12-16T05:28:34;-6.80;84.30
21108;DHT22;10712;52.944;9.098;2022-12-16T05:31:18;-6.90;84.20
21108;DHT22;10712;52.944;9.098;2022-12-16T05:34:03;-7.00;83.90
21108;DHT22;10712;52.944;9.098;2022-12-16T05:36:47;-7.00;84.40
21108;DHT22;10712;52.944;9.098;2022-12-16T05:39:31;-7.00;85.20
21108;DHT22;10712;52.944;9.098;2022-12-16T05:42:16;-7.00;85.40
21108;DHT22;10712;52.944;9.098;2022-12-16T05:45:00;-6.90;85.60
21108;DHT22;10712;52.944;9.098;2022-12-16T05:47:46;-6.90;85.50
21108;DHT22;10712;52.944;9.098;2022-12-16T05:50:32;-6.90;84.70
21108;DHT22;10712;52.944;9.098;2022-12-16T05:53:16;-6.90;84.80
21108;DHT22;10712;52.944;9.098;2022-12-16T05:56:00;-6.90;84.90
21108;DHT22;10712;52.944;9.098;2022-12-16T05:58:44;-6.90;84.90
21108;DHT22;10712;52.944;9.098;2022-12-16T06:01:29;-6.90;84.90
21108;DHT22;10712;52.944;9.098;2022-12-16T06:04:13;-6.80;85.00
21108;DHT22;10712;52.944;9.098;2022-12-16T06:06:58;-6.80;85.10
21108;DHT22;10712;52.944;9.098;2022-12-16T06:09:42;-6.70;85.20
21108;DHT22;10712;52.944;9.098;2022-12-16T06:12:26;-6.70;85.10
21108;DHT22;10712;52.944;9.098;2022-12-16T06:15:11;-6.70;85.20
21108;DHT22;10712;52.944;9.098;2022-12-16T06:17:55;-6.60;85.20
21108;DHT22;10712;52.944;9.098;2022-12-16T06:20:39;-6.60;85.10
21108;DHT22;10712;52.944;9.098;2022-12-16T06:23:34;-6.60;85.30
21108;DHT22;10712;52.944;9.098;2022-12-16T06:26:19;-6.60;85.30
21108;DHT22;10712;52.944;9.098;2022-12-16T06:29:03;-6.60;85.10
21108;DHT22;10712;52.944;9.098;2022-12-16T06:31:47;-6.60;85.10
21108;DHT22;10712;52.944;9.098;2022-12-16T06:34:31;-6.50;85.10
21108;DHT22;10712;52.944;9.098;2022-12-16T06:37:16;-6.50;85.00
21108;DHT22;10712;52.944;9.098;2022-12-16T06:40:00;-6.60;85.10
21108;DHT22;10712;52.944;9.098;2022-12-16T06:42:45;-6.50;85.40
21108;DHT22;10712;52.944;9.098;2022-12-16T06:45:29;-6.50;85.60
21108;DHT22;10712;52.944;9.098;2022-12-16T06:48:13;-6.50;85.60
21108;DHT22;10712;52.944;9.098;2022-12-16T06:50:58;-6.50;85.40
21108;DHT22;10712;52.944;9.098;2022-12-16T06:53:42;-6.60;84.90
21108;DHT22;10712;52.944;9.098;2022-12-16T06:56:26;-6.60;85.20
21108;DHT22;10712;52.944;9.098;2022-12-16T06:59:10;-6.60;85.50
21108;DHT22;10712;52.944;9.098;2022-12-16T07:01:55;-6.60;85.60
21108;DHT22;10712;52.944;9.098;2022-12-16T07:04:39;-6.60;85.80
21108;DHT22;10712;52.944;9.098;2022-12-16T07:07:23;-6.60;86.00
21108;DHT22;10712;52.944;9.098;2022-12-16T07:10:07;-6.50;86.30
21108;DHT22;10712;52.944;9.098;2022-12-16T07:12:53;-6.50;86.40
21108;DHT22;10712;52.944;9.098;2022-12-16T07:15:40;-6.60;85.50
21108;DHT22;10712;52.944;9.098;2022-12-16T07:18:24;-6.60;85.60
21108;DHT22;10712;52.944;9.098;2022-12-16T07:21:08;-6.60;85.70
21108;DHT22;10712;52.944;9.098;2022-12-16T07:23:52;-6.60;85.80
21108;DHT22;10712;52.944;9.098;2022-12-16T07:26:37;-6.60;86.00
21108;DHT22;10712;52.944;9.098;2022-12-16T07:29:21;-6.50;85.70
21108;DHT22;10712;52.944;9.098;2022-12-16T07:32:05;-6.50;85.70
21108;DHT22;10712;52.944;9.098;2022-12-16T07:34:49;-6.50;85.50
21108;DHT22;10712;52.944;9.098;2022-12-16T07:37:35;-6.50;85.30
21108;DHT22;10712;52.944;9.098;2022-12-16T07:40:20;-6.50;85.30
21108;DHT22;10712;52.944;9.098;2022-12-16T07:43:04;-6.50;85.30
21108;DHT22;10712;52.944;9.098;2022-12-16T07:45:48;-6.50;85.10
21108;DHT22;10712;52.944;9.098;2022-12-16T07:48:32;-6.60;83.80
21108;DHT22;10712;52.944;9.098;2022-12-16T07:51:16;-6.70;84.10
21108;DHT22;10712;52.944;9.098;2022-12-16T07:54:01;-6.70;84.20
21108;DHT22;10712;52.944;9.098;2022-12-16T07:56:45;-6.80;84.10
21108;DHT22;10712;52.944;9.098;2022-12-16T07:59:30;-6.80;84.60
21108;DHT22;10712;52.944;9.098;2022-12-16T08:02:15;-6.80;84.60
21108;DHT22;10712;52.944;9.098;2022-12-16T08:04:59;-6.90;84.00
21108;DHT22;10712;52.944;9.098;2022-12-16T08:07:43;-6.90;84.20
21108;DHT22;10712;52.944;9.098;2022-12-16T08:10:27;-7.00;84.00
21108;DHT22;10712;52.944;9.098;2022-12-16T08:13:12;-7.10;84.30
21108;DHT22;10712;52.944;9.098;2022-12-16T08:15:56;-7.10;85.10
21108;DHT22;10712;52.944;9.098;2022-12-16T08:18:40;-7.00;85.50
21108;DHT22;10712;52.944;9.098;2022-12-16T08:21:24;-7.00;85.00
21108;DHT22;10712;52.944;9.098;2022-12-16T08:24:09;-7.00;85.00
21108;DHT22;10712;52.944;9.098;2022-12-16T08:26:53;-7.00;85.30
21108;DHT22;10712;52.944;9.098;2022-12-16T08:29:37;-7.00;85.20
21108;DHT22;10712;52.944;9.098;2022-12-16T08:32:21;-7.00;85.50
21108;DHT22;10712;52.944;9.098;2022-12-16T08:35:06;-6.90;85.90
21108;DHT22;10712;52.944;9.098;2022-12-16T08:37:53;-6.90;86.30
21108;DHT22;10712;52.944;9.098;2022-12-16T08:40:42;-6.90;86.80
21108;DHT22;10712;52.944;9.098;2022-12-16T08:43:29;-6.80;87.20
21108;DHT22;10712;52.944;9.098;2022-12-16T08:46:14;-6.70;87.40
21108;DHT22;10712;52.944;9.098;2022-12-16T08:48:58;-6.50;87.80
21108;DHT22;10712;52.944;9.098;2022-12-16T08:51:43;-6.40;87.90
21108;DHT22;10712;52.944;9.098;2022-12-16T08:54:27;-6.30;88.10
21108;DHT22;10712;52.944;9.098;2022-12-16T08:57:11;-6.20;88.30
21108;DHT22;10712;52.944;9.098;2022-12-16T08:59:56;-6.10;88.40
21108;DHT22;10712;52.944;9.098;2022-12-16T09:02:40;-6.10;88.70
21108;DHT22;10712;52.944;9.098;2022-12-16T09:05:24;-6.00;89.00
21108;DHT22;10712;52.944;9.098;2022-12-16T09:08:09;-5.90;89.10
21108;DHT22;10712;52.944;9.098;2022-12-16T09:10:53;-5.80;89.20
21108;DHT22;10712;52.944;9.098;2022-12-16T09:13:37;-5.70;89.20
21108;DHT22;10712;52.944;9.098;2022-12-16T09:16:21;-5.70;89.10
21108;DHT22;10712;52.944;9.098;2022-12-16T09:19:08;-5.60;89.00
21108;DHT22;10712;52.944;9.098;2022-12-16T09:21:53;-5.60;89.10
21108;DHT22;10712;52.944;9.098;2022-12-16T09:24:37;-5.50;89.10
21108;DHT22;10712;52.944;9.098;2022-12-16T09:27:22;-5.40;89.20
21108;DHT22;10712;52.944;9.098;2022-12-16T09:30:06;-5.40;89.20
21108;DHT22;10712;52.944;9.098;2022-12-16T09:32:51;-5.30;89.20
21108;DHT22;10712;52.944;9.098;2022-12-16T09:35:35;-5.30;89.30
21108;DHT22;10712;52.944;9.098;2022-12-16T09:38:20;-5.20;89.30
21108;DHT22;10712;52.944;9.098;2022-12-16T09:47:54;-5.00;89.30
21108;DHT22;10712;52.944;9.098;2022-12-16T09:50:53;-5.00;89.40
21108;DHT22;10712;52.944;9.098;2022-12-16T09:53:39;-4.90;89.40
21108;DHT22;10712;52.944;9.098;2022-12-16T09:56:29;-4.80;89.40
21108;DHT22;10712;52.944;9.098;2022-12-16T09:59:19;-4.80;89.50
21108;DHT22;10712;52.944;9.098;2022-12-16T10:02:16;-4.70;89.50
21108;DHT22;10712;52.944;9.098;2022-12-16T10:05:01;-4.70;89.50
21108;DHT22;10712;52.944;9.098;2022-12-16T10:08:04;-4.60;89.60
21108;DHT22;10712;52.944;9.098;2022-12-16T10:11:03;-4.60;89.70
21108;DHT22;10712;52.944;9.098;2022-12-16T10:20:06;-4.40;89.70
21108;DHT22;10712;52.944;9.098;2022-12-16T10:22:57;-4.30;89.70
21108;DHT22;10712;52.944;9.098;2022-12-16T10:25:45;-4.20;89.80
21108;DHT22;10712;52.944;9.098;2022-12-16T10:28:55;-4.20;89.80
21108;DHT22;10712;52.944;9.098;2022-12-16T10:31:47;-4.10;89.80
21108;DHT22;10712;52.944;9.098;2022-12-16T10:34:31;-4.00;89.90
21108;DHT22;10712;52.944;9.098;2022-12-16T10:37:32;-3.90;89.80
21108;DHT22;10712;52.944;9.098;2022-12-16T10:40:22;-3.90;89.80
21108;DHT22;10712;52.944;9.098;2022-12-16T10:43:12;-3.80;89.90
21108;DHT22;10712;52.944;9.098;2022-12-16T10:46:00;-3.70;90.10
21108;DHT22;10712;52.944;9.098;2022-12-16T10:49:11;-3.60;90.20
21108;DHT22;10712;52.944;9.098;2022-12-16T10:51:57;-3.50;90.10
21108;DHT22;10712;52.944;9.098;2022-12-16T10:54:43;-3.50;90.20
21108;DHT22;10712;52.944;9.098;2022-12-16T11:03:28;-3.30;90.30
21108;DHT22;10712;52.944;9.098;2022-12-16T11:06:56;-3.20;90.20
21108;DHT22;10712;52.944;9.098;2022-12-16T11:15:23;-3.00;90.20
21108;DHT22;10712;52.944;9.098;2022-12-16T11:18:18;-3.00;90.10
21108;DHT22;10712;52.944;9.098;2022-12-16T11:21:17;-2.90;90.10
21108;DHT22;10712;52.944;9.098;2022-12-16T11:24:05;-2.90;90.10
21108;DHT22;10712;52.944;9.098;2022-12-16T11:26:53;-2.90;90.10
21108;DHT22;10712;52.944;9.098;2022-12-16T11:32:58;-2.80;90.10
21108;DHT22;10712;52.944;9.098;2022-12-16T11:35:49;-2.80;90.10
21108;DHT22;10712;52.944;9.098;2022-12-16T11:38:41;-2.80;90.20
21108;DHT22;10712;52.944;9.098;2022-12-16T11:44:32;-2.70;90.30
21108;DHT22;10712;52.944;9.098;2022-12-16T11:50:16;-2.60;90.50
21108;DHT22;10712;52.944;9.098;2022-12-16T11:53:01;-2.60;90.60
21108;DHT22;10712;52.944;9.098;2022-12-16T11:55:52;-2.50;90.70
21108;DHT22;10712;52.944;9.098;2022-12-16T11:58:43;-2.40;90.70
21108;DHT22;10712;52.944;9.098;2022-12-16T12:01:34;-2.40;90.70
21108;DHT22;10712;52.944;9.098;2022-12-16T12:04:24;-2.30;90.70
21108;DHT22;10712;52.944;9.098;2022-12-16T12:13:58;-2.00;90.50
21108;DHT22;10712;52.944;9.098;2022-12-16T12:19:55;-1.80;90.40
21108;DHT22;10712;52.944;9.098;2022-12-16T12:22:41;-1.60;90.50
21108;DHT22;10712;52.944;9.098;2022-12-16T12:25:36;-1.50;90.40
21108;DHT22;10712;52.944;9.098;2022-12-16T12:28:36;-1.50;90.10
21108;DHT22;10712;52.944;9.098;2022-12-16T12:31:42;-1.40;90.10
21108;DHT22;10712;52.944;9.098;2022-12-16T12:37:45;-1.10;91.20
21108;DHT22;10712;52.944;9.098;2022-12-16T12:43:31;-1.00;90.90
21108;DHT22;10712;52.944;9.098;2022-12-16T12:47:06;-0.90;91.50
21108;DHT22;10712;52.944;9.098;2022-12-16T12:50:07;-0.80;91.30
21108;DHT22;10712;52.944;9.098;2022-12-16T12:59:31;-0.80;88.80
21108;DHT22;10712;52.944;9.098;2022-12-16T13:02:20;-0.90;88.60
21108;DHT22;10712;52.944;9.098;2022-12-16T13:05:10;-0.90;88.50
21108;DHT22;10712;52.944;9.098;2022-12-16T13:08:29;-1.00;88.30
21108;DHT22;10712;52.944;9.098;2022-12-16T13:11:18;-1.10;88.20
21108;DHT22;10712;52.944;9.098;2022-12-16T13:14:42;-1.10;88.10
21108;DHT22;10712;52.944;9.098;2022-12-16T13:17:17;-1.20;88.10
21108;DHT22;10712;52.944;9.098;2022-12-16T13:20:03;-1.20;88.20
21108;DHT22;10712;52.944;9.098;2022-12-16T13:26:11;-1.30;88.20
21108;DHT22;10712;52.944;9.098;2022-12-16T13:34:59;-1.40;88.10
21108;DHT22;10712;52.944;9.098;2022-12-16T13:37:51;-1.40;88.20
21108;DHT22;10712;52.944;9.098;2022-12-16T13:40:58;-1.40;88.20
21108;DHT22;10712;52.944;9.098;2022-12-16T13:46:48;-1.50;88.10
21108;DHT22;10712;52.944;9.098;2022-12-16T13:55:39;-1.50;88.00
21108;DHT22;10712;52.944;9.098;2022-12-16T13:58:41;-1.60;88.00
21108;DHT22;10712;52.944;9.098;2022-12-16T14:04:36;-1.60;88.00
21108;DHT22;10712;52.944;9.098;2022-12-16T14:07:23;-1.60;88.10
21108;DHT22;10712;52.944;9.098;2022-12-16T14:10:22;-1.70;88.20
21108;DHT22;10712;52.944;9.098;2022-12-16T14:13:09;-1.70;88.20
21108;DHT22;10712;52.944;9.098;2022-12-16T14:22:04;-1.80;88.40
21108;DHT22;10712;52.944;9.098;2022-12-16T14:24:53;-1.80;88.30
21108;DHT22;10712;52.944;9.098;2022-12-16T14:27:41;-1.80;88.30
21108;DHT22;10712;52.944;9.098;2022-12-16T14:30:26;-1.80;88.20
21108;DHT22;10712;52.944;9.098;2022-12-16T14:33:21;-1.80;88.30
21108;DHT22;10712;52.944;9.098;2022-12-16T14:36:23;-1.90;88.30
21108;DHT22;10712;52.944;9.098;2022-12-16T14:39:11;-1.90;88.30
21108;DHT22;10712;52.944;9.098;2022-12-16T14:41:57;-2.00;88.30
21108;DHT22;10712;52.944;9.098;2022-12-16T14:44:44;-2.00;88.20
21108;DHT22;10712;52.944;9.098;2022-12-16T14:47:30;-2.00;88.20
21108;DHT22;10712;52.944;9.098;2022-12-16T14:50:21;-2.00;88.20
21108;DHT22;10712;52.944;9.098;2022-12-16T14:53:17;-2.00;88.20
21108;DHT22;10712;52.944;9.098;2022-12-16T14:56:36;-2.10;88.20
21108;DHT22;10712;52.944;9.098;2022-12-16T14:59:15;-2.10;88.10
21108;DHT22;10712;52.944;9.098;2022-12-16T15:02:19;-2.20;87.90
21108;DHT22;10712;52.944;9.098;2022-12-16T15:05:29;-2.20;87.80
21108;DHT22;10712;52.944;9.098;2022-12-16T15:08:16;-2.30;87.60
21108;DHT22;10712;52.944;9.098;2022-12-16T15:11:12;-2.40;87.60
21108;DHT22;10712;52.944;9.098;2022-12-16T15:14:01;-2.40;87.80
21108;DHT22;10712;52.944;9.098;2022-12-16T15:16:47;-2.50;87.80
21108;DHT22;10712;52.944;9.098;2022-12-16T15:19:51;-2.50;87.90
21108;DHT22;10712;52.944;9.098;2022-12-16T15:22:37;-2.50;88.00
21108;DHT22;10712;52.944;9.098;2022-12-16T15:25:29;-2.60;88.00
21108;DHT22;10712;52.944;9.098;2022-12-16T15:28:24;-2.60;88.00
21108;DHT22;10712;52.944;9.098;2022-12-16T15:31:25;-2.60;88.00
21108;DHT22;10712;52.944;9.098;2022-12-16T15:37:29;-2.70;87.90
21108;DHT22;10712;52.944;9.098;2022-12-16T15:40:27;-2.80;88.10
21108;DHT22;10712;52.944;9.098;2022-12-16T15:43:29;-2.80;88.10
21108;DHT22;10712;52.944;9.098;2022-12-16T15:46:17;-2.80;88.10
21108;DHT22;10712;52.944;9.098;2022-12-16T15:49:13;-2.90;87.70
21108;DHT22;10712;52.944;9.098;2022-12-16T15:52:32;-2.90;87.80
21108;DHT22;10712;52.944;9.098;2022-12-16T15:58:32;-3.00;87.90
21108;DHT22;10712;52.944;9.098;2022-12-16T16:01:20;-3.00;88.00
21108;DHT22;10712;52.944;9.098;2022-12-16T16:07:17;-3.10;87.70
21108;DHT22;10712;52.944;9.098;2022-12-16T16:10:21;-3.20;87.00
21108;DHT22;10712;52.944;9.098;2022-12-16T16:13:07;-3.30;87.20
21108;DHT22;10712;52.944;9.098;2022-12-16T16:15:52;-3.30;87.20
21108;DHT22;10712;52.944;9.098;2022-12-16T16:18:38;-3.40;87.20
21108;DHT22;10712;52.944;9.098;2022-12-16T16:21:23;-3.40;87.20
21108;DHT22;10712;52.944;9.098;2022-12-16T16:24:08;-3.50;87.20
21108;DHT22;10712;52.944;9.098;2022-12-16T16:26:52;-3.50;87.40
21108;DHT22;10712;52.944;9.098;2022-12-16T16:29:37;-3.50;87.40
21108;DHT22;10712;52.944;9.098;2022-12-16T16:32:22;-3.50;87.60
21108;DHT22;10712;52.944;9.098;2022-12-16T16:35:06;-3.50;88.00
21108;DHT22;10712;52.944;9.098;2022-12-16T16:37:50;-3.50;88.00
21108;DHT22;10712;52.944;9.098;2022-12-16T16:40:38;-3.60;87.40
21108;DHT22;10712;52.944;9.098;2022-12-16T16:43:25;-3.70;87.40
21108;DHT22;10712;52.944;9.098;2022-12-16T16:49:18;-3.80;87.20
21108;DHT22;10712;52.944;9.098;2022-12-16T16:52:08;-3.90;87.30
21108;DHT22;10712;52.944;9.098;2022-12-16T16:54:54;-3.90;87.50
21108;DHT22;10712;52.944;9.098;2022-12-16T16:57:38;-3.90;87.50
21108;DHT22;10712;52.944;9.098;2022-12-16T17:00:22;-4.00;87.40
21108;DHT22;10712;52.944;9.098;2022-12-16T17:03:07;-4.00;87.50
21108;DHT22;10712;52.944;9.098;2022-12-16T17:05:51;-4.10;87.00
21108;DHT22;10712;52.944;9.098;2022-12-16T17:08:35;-4.10;86.80
21108;DHT22;10712;52.944;9.098;2022-12-16T17:11:20;-4.20;86.90
21108;DHT22;10712;52.944;9.098;2022-12-16T17:14:13;-4.30;86.90
21108;DHT22;10712;52.944;9.098;2022-12-16T17:17:01;-4.40;87.20
21108;DHT22;10712;52.944;9.098;2022-12-16T17:19:46;-4.40;87.40
21108;DHT22;10712;52.944;9.098;2022-12-16T17:22:31;-4.40;87.50
21108;DHT22;10712;52.944;9.098;2022-12-16T17:25:16;-4.40;87.40
21108;DHT22;10712;52.944;9.098;2022-12-16T17:28:00;-4.50;87.10
21108;DHT22;10712;52.944;9.098;2022-12-16T17:30:45;-4.50;87.50
21108;DHT22;10712;52.944;9.098;2022-12-16T17:33:29;-4.40;87.90
21108;DHT22;10712;52.944;9.098;2022-12-16T17:36:14;-4.40;88.00
21108;DHT22;10712;52.944;9.098;2022-12-16T17:39:00;-4.30;88.20
21108;DHT22;10712;52.944;9.098;2022-12-16T17:41:45;-4.30;88.20
21108;DHT22;10712;52.944;9.098;2022-12-16T17:44:29;-4.30;87.80
21108;DHT22;10712;52.944;9.098;2022-12-16T17:47:14;-4.30;87.70
21108;DHT22;10712;52.944;9.098;2022-12-16T17:49:59;-4.30;88.00
21108;DHT22;10712;52.944;9.098;2022-12-16T17:52:43;-4.30;88.10
21108;DHT22;10712;52.944;9.098;2022-12-16T17:55:28;-4.30;88.50
21108;DHT22;10712;52.944;9.098;2022-12-16T17:58:12;-4.20;88.70
21108;DHT22;10712;52.944;9.098;2022-12-16T18:01:03;-4.20;88.70
21108;DHT22;10712;52.944;9.098;2022-12-16T18:03:49;-4.10;88.70
21108;DHT22;10712;52.944;9.098;2022-12-16T18:06:34;-4.10;88.80
21108;DHT22;10712;52.944;9.098;2022-12-16T18:09:19;-4.10;88.60
21108;DHT22;10712;52.944;9.098;2022-12-16T18:12:03;-4.10;88.50
21108;DHT22;10712;52.944;9.098;2022-12-16T18:14:48;-4.10;88.40
21108;DHT22;10712;52.944;9.098;2022-12-16T18:17:32;-4.20;88.10
21108;DHT22;10712;52.944;9.098;2022-12-16T18:20:17;-4.20;88.10
21108;DHT22;10712;52.944;9.098;2022-12-16T18:23:00;-4.20;88.10
21108;DHT22;10712;52.944;9.098;2022-12-16T18:25:55;-4.30;87.30
21108;DHT22;10712;52.944;9.098;2022-12-16T18:28:40;-4.40;87.20
21108;DHT22;10712;52.944;9.098;2022-12-16T18:31:25;-4.50;87.40
21108;DHT22;10712;52.944;9.098;2022-12-16T18:34:09;-4.50;87.60
21108;DHT22;10712;52.944;9.098;2022-12-16T18:36:53;-4.50;87.80
21108;DHT22;10712;52.944;9.098;2022-12-16T18:39:48;-4.50;87.90
21108;DHT22;10712;52.944;9.098;2022-12-16T18:42:33;-4.50;87.90
21108;DHT22;10712;52.944;9.098;2022-12-16T18:45:17;-4.50;88.00
21108;DHT22;10712;52.944;9.098;2022-12-16T18:48:01;-4.60;87.60
21108;DHT22;10712;52.944;9.098;2022-12-16T18:50:52;-4.60;87.50
21108;DHT22;10712;52.944;9.098;2022-12-16T18:53:42;-4.60;87.60
21108;DHT22;10712;52.944;9.098;2022-12-16T18:56:27;-4.60;87.70
21108;DHT22;10712;52.944;9.098;2022-12-16T18:59:11;-4.70;87.70
21108;DHT22;10712;52.944;9.098;2022-12-16T19:01:56;-4.60;87.80
21108;DHT22;10712;52.944;9.098;2022-12-16T19:04:41;-4.60;88.00
21108;DHT22;10712;52.944;9.098;2022-12-16T19:07:25;-4.60;88.10